Terminal Aerodrome Forecast
Issued by NWS Wakefield, VA

Home | Current Version | Previous Version | Text Only | Print | Product List | Glossary On
Versions: 1 2 3 4 5 6 7 8 9 10 11 12 13 14 15
000
FTUS41 KAKQ 301100
TAFORF
TAF
KORF 301120Z 3012/3112 01006KT P6SM BKN060
     FM301400 03007KT P6SM SCT060
     FM302000 VRB05KT P6SM FEW060=

USA.gov is the U.S. government's official web portal to all federal, state and local government web resources and services.